sensor_id;sensor_type;location;lat;lon;timestamp;P1;durP1;ratioP1;P2;durP2;ratioP2
30998;SDS011;20549;50.042;8.968;2024-02-26T00:02:06;1.30;;;1.20;;
30998;SDS011;20549;50.042;8.968;2024-02-26T00:04:33;1.70;;;1.60;;
30998;SDS011;20549;50.042;8.968;2024-02-26T00:06:59;2.90;;;1.40;;
30998;SDS011;20549;50.042;8.968;2024-02-26T00:09:26;1.67;;;1.57;;
30998;SDS011;20549;50.042;8.968;2024-02-26T00:11:53;1.67;;;1.40;;
30998;SDS011;20549;50.042;8.968;2024-02-26T00:14:19;2.10;;;1.40;;
30998;SDS011;20549;50.042;8.968;2024-02-26T00:16:46;1.50;;;1.40;;
30998;SDS011;20549;50.042;8.968;2024-02-26T00:19:12;2.00;;;1.20;;
30998;SDS011;20549;50.042;8.968;2024-02-26T00:21:42;1.63;;;1.53;;
30998;SDS011;20549;50.042;8.968;2024-02-26T00:24:09;1.40;;;1.30;;
30998;SDS011;20549;50.042;8.968;2024-02-26T00:26:35;1.50;;;1.40;;
30998;SDS011;20549;50.042;8.968;2024-02-26T00:29:02;2.37;;;1.30;;
30998;SDS011;20549;50.042;8.968;2024-02-26T00:31:28;2.53;;;1.33;;
30998;SDS011;20549;50.042;8.968;2024-02-26T00:33:55;1.33;;;1.27;;
30998;SDS011;20549;50.042;8.968;2024-02-26T00:36:22;1.43;;;1.33;;
30998;SDS011;20549;50.042;8.968;2024-02-26T00:38:48;1.70;;;1.60;;
30998;SDS011;20549;50.042;8.968;2024-02-26T00:41:15;1.50;;;1.40;;
30998;SDS011;20549;50.042;8.968;2024-02-26T00:43:41;1.93;;;1.77;;
30998;SDS011;20549;50.042;8.968;2024-02-26T00:46:08;2.57;;;1.60;;
30998;SDS011;20549;50.042;8.968;2024-02-26T00:48:35;1.93;;;1.80;;
30998;SDS011;20549;50.042;8.968;2024-02-26T00:51:01;1.50;;;1.40;;
30998;SDS011;20549;50.042;8.968;2024-02-26T00:53:28;1.70;;;1.60;;
30998;SDS011;20549;50.042;8.968;2024-02-26T00:55:54;1.43;;;1.33;;
30998;SDS011;20549;50.042;8.968;2024-02-26T00:58:21;1.40;;;1.30;;
30998;SDS011;20549;50.042;8.968;2024-02-26T01:00:48;2.50;;;1.30;;
30998;SDS011;20549;50.042;8.968;2024-02-26T01:03:14;1.37;;;1.37;;
30998;SDS011;20549;50.042;8.968;2024-02-26T01:05:41;1.93;;;1.73;;
30998;SDS011;20549;50.042;8.968;2024-02-26T01:08:07;1.73;;;1.63;;
30998;SDS011;20549;50.042;8.968;2024-02-26T01:10:34;1.47;;;1.37;;
30998;SDS011;20549;50.042;8.968;2024-02-26T01:13:01;1.60;;;1.50;;
30998;SDS011;20549;50.042;8.968;2024-02-26T01:15:27;1.63;;;1.53;;
30998;SDS011;20549;50.042;8.968;2024-02-26T01:17:54;1.53;;;1.43;;
30998;SDS011;20549;50.042;8.968;2024-02-26T01:20:20;1.83;;;1.73;;
30998;SDS011;20549;50.042;8.968;2024-02-26T01:22:47;1.70;;;1.60;;
30998;SDS011;20549;50.042;8.968;2024-02-26T01:25:16;2.40;;;1.80;;
30998;SDS011;20549;50.042;8.968;2024-02-26T01:27:42;5.00;;;2.10;;
30998;SDS011;20549;50.042;8.968;2024-02-26T01:30:09;2.00;;;1.90;;
30998;SDS011;20549;50.042;8.968;2024-02-26T01:32:36;1.97;;;1.77;;
30998;SDS011;20549;50.042;8.968;2024-02-26T01:35:02;2.57;;;1.60;;
30998;SDS011;20549;50.042;8.968;2024-02-26T01:37:31;1.90;;;1.80;;
30998;SDS011;20549;50.042;8.968;2024-02-26T01:39:58;1.67;;;1.57;;
30998;SDS011;20549;50.042;8.968;2024-02-26T01:42:25;1.77;;;1.67;;
30998;SDS011;20549;50.042;8.968;2024-02-26T01:44:51;1.83;;;1.73;;
30998;SDS011;20549;50.042;8.968;2024-02-26T01:47:18;2.03;;;1.93;;
30998;SDS011;20549;50.042;8.968;2024-02-26T01:49:44;1.90;;;1.80;;
30998;SDS011;20549;50.042;8.968;2024-02-26T01:52:11;3.00;;;1.90;;
30998;SDS011;20549;50.042;8.968;2024-02-26T01:54:38;2.03;;;1.90;;
30998;SDS011;20549;50.042;8.968;2024-02-26T01:57:05;2.07;;;1.73;;
30998;SDS011;20549;50.042;8.968;2024-02-26T01:59:31;1.90;;;1.80;;
30998;SDS011;20549;50.042;8.968;2024-02-26T02:01:58;1.97;;;1.53;;
30998;SDS011;20549;50.042;8.968;2024-02-26T02:04:24;2.00;;;1.90;;
30998;SDS011;20549;50.042;8.968;2024-02-26T02:06:51;2.43;;;1.97;;
30998;SDS011;20549;50.042;8.968;2024-02-26T02:09:17;1.80;;;1.70;;
30998;SDS011;20549;50.042;8.968;2024-02-26T02:11:44;1.90;;;1.80;;
30998;SDS011;20549;50.042;8.968;2024-02-26T02:14:10;2.23;;;2.03;;
30998;SDS011;20549;50.042;8.968;2024-02-26T02:16:37;2.70;;;2.10;;
30998;SDS011;20549;50.042;8.968;2024-02-26T02:19:03;1.87;;;1.67;;
30998;SDS011;20549;50.042;8.968;2024-02-26T02:21:30;1.80;;;1.70;;
30998;SDS011;20549;50.042;8.968;2024-02-26T02:23:57;1.87;;;1.77;;
30998;SDS011;20549;50.042;8.968;2024-02-26T02:26:23;2.20;;;2.00;;
30998;SDS011;20549;50.042;8.968;2024-02-26T02:28:50;1.97;;;1.83;;
30998;SDS011;20549;50.042;8.968;2024-02-26T02:31:16;2.03;;;1.90;;
30998;SDS011;20549;50.042;8.968;2024-02-26T02:33:43;2.03;;;1.70;;
30998;SDS011;20549;50.042;8.968;2024-02-26T02:36:10;2.83;;;1.97;;
30998;SDS011;20549;50.042;8.968;2024-02-26T02:38:36;2.53;;;2.33;;
30998;SDS011;20549;50.042;8.968;2024-02-26T02:41:03;2.07;;;1.97;;
30998;SDS011;20549;50.042;8.968;2024-02-26T02:43:29;2.20;;;2.00;;
30998;SDS011;20549;50.042;8.968;2024-02-26T02:45:56;2.97;;;2.13;;
30998;SDS011;20549;50.042;8.968;2024-02-26T02:48:23;2.23;;;2.00;;
30998;SDS011;20549;50.042;8.968;2024-02-26T02:50:49;2.13;;;1.97;;
30998;SDS011;20549;50.042;8.968;2024-02-26T02:53:16;2.13;;;1.83;;
30998;SDS011;20549;50.042;8.968;2024-02-26T02:55:42;2.13;;;2.00;;
30998;SDS011;20549;50.042;8.968;2024-02-26T02:58:09;2.57;;;1.90;;
30998;SDS011;20549;50.042;8.968;2024-02-26T03:00:35;2.00;;;1.80;;
30998;SDS011;20549;50.042;8.968;2024-02-26T03:03:02;2.00;;;1.90;;
30998;SDS011;20549;50.042;8.968;2024-02-26T03:05:29;2.17;;;1.90;;
30998;SDS011;20549;50.042;8.968;2024-02-26T03:07:55;2.10;;;1.90;;
30998;SDS011;20549;50.042;8.968;2024-02-26T03:10:22;2.57;;;2.00;;
30998;SDS011;20549;50.042;8.968;2024-02-26T03:12:49;2.33;;;2.10;;
30998;SDS011;20549;50.042;8.968;2024-02-26T03:15:15;4.97;;;2.13;;
30998;SDS011;20549;50.042;8.968;2024-02-26T03:17:42;2.10;;;1.90;;
30998;SDS011;20549;50.042;8.968;2024-02-26T03:20:08;2.33;;;2.13;;
30998;SDS011;20549;50.042;8.968;2024-02-26T03:22:35;1.83;;;1.73;;
30998;SDS011;20549;50.042;8.968;2024-02-26T03:25:01;2.67;;;2.03;;
30998;SDS011;20549;50.042;8.968;2024-02-26T03:27:28;2.40;;;2.20;;
30998;SDS011;20549;50.042;8.968;2024-02-26T03:29:55;2.00;;;1.80;;
30998;SDS011;20549;50.042;8.968;2024-02-26T03:32:21;2.30;;;2.03;;
30998;SDS011;20549;50.042;8.968;2024-02-26T03:34:48;2.50;;;2.20;;
30998;SDS011;20549;50.042;8.968;2024-02-26T03:37:14;2.60;;;2.20;;
30998;SDS011;20549;50.042;8.968;2024-02-26T03:39:41;2.47;;;1.97;;
30998;SDS011;20549;50.042;8.968;2024-02-26T03:42:08;2.13;;;2.03;;
30998;SDS011;20549;50.042;8.968;2024-02-26T03:44:34;1.80;;;1.70;;
30998;SDS011;20549;50.042;8.968;2024-02-26T03:47:01;2.43;;;1.83;;
30998;SDS011;20549;50.042;8.968;2024-02-26T03:49:27;3.67;;;2.30;;
30998;SDS011;20549;50.042;8.968;2024-02-26T03:51:54;2.03;;;1.80;;
30998;SDS011;20549;50.042;8.968;2024-02-26T03:54:21;2.00;;;1.90;;
30998;SDS011;20549;50.042;8.968;2024-02-26T03:56:47;2.37;;;2.10;;
30998;SDS011;20549;50.042;8.968;2024-02-26T03:59:14;1.90;;;1.80;;
30998;SDS011;20549;50.042;8.968;2024-02-26T04:01:44;2.90;;;2.20;;
30998;SDS011;20549;50.042;8.968;2024-02-26T04:04:07;2.70;;;2.10;;
30998;SDS011;20549;50.042;8.968;2024-02-26T04:06:33;2.47;;;2.27;;
30998;SDS011;20549;50.042;8.968;2024-02-26T04:09:00;2.20;;;2.00;;
30998;SDS011;20549;50.042;8.968;2024-02-26T04:11:27;2.73;;;2.13;;
30998;SDS011;20549;50.042;8.968;2024-02-26T04:13:53;2.07;;;1.97;;
30998;SDS011;20549;50.042;8.968;2024-02-26T04:16:20;2.67;;;2.00;;
30998;SDS011;20549;50.042;8.968;2024-02-26T04:18:46;2.40;;;2.20;;
30998;SDS011;20549;50.042;8.968;2024-02-26T04:21:13;2.40;;;2.20;;
30998;SDS011;20549;50.042;8.968;2024-02-26T04:23:40;2.43;;;2.07;;
30998;SDS011;20549;50.042;8.968;2024-02-26T04:26:06;2.37;;;2.20;;
30998;SDS011;20549;50.042;8.968;2024-02-26T04:28:33;2.50;;;2.30;;
30998;SDS011;20549;50.042;8.968;2024-02-26T04:30:59;2.50;;;2.00;;
30998;SDS011;20549;50.042;8.968;2024-02-26T04:33:26;2.30;;;2.10;;
30998;SDS011;20549;50.042;8.968;2024-02-26T04:35:52;2.33;;;2.13;;
30998;SDS011;20549;50.042;8.968;2024-02-26T04:38:19;2.50;;;2.27;;
30998;SDS011;20549;50.042;8.968;2024-02-26T04:40:46;2.40;;;2.20;;
30998;SDS011;20549;50.042;8.968;2024-02-26T04:43:12;2.67;;;2.47;;
30998;SDS011;20549;50.042;8.968;2024-02-26T04:45:39;2.97;;;2.67;;
30998;SDS011;20549;50.042;8.968;2024-02-26T04:48:05;2.47;;;2.27;;
30998;SDS011;20549;50.042;8.968;2024-02-26T04:50:32;2.07;;;1.97;;
30998;SDS011;20549;50.042;8.968;2024-02-26T04:52:59;2.40;;;2.30;;
30998;SDS011;20549;50.042;8.968;2024-02-26T04:55:25;3.53;;;2.77;;
30998;SDS011;20549;50.042;8.968;2024-02-26T04:57:52;2.53;;;2.30;;
30998;SDS011;20549;50.042;8.968;2024-02-26T05:00:18;2.17;;;2.07;;
30998;SDS011;20549;50.042;8.968;2024-02-26T05:02:45;2.27;;;2.07;;
30998;SDS011;20549;50.042;8.968;2024-02-26T05:05:12;2.87;;;2.50;;
30998;SDS011;20549;50.042;8.968;2024-02-26T05:07:41;2.63;;;2.43;;
30998;SDS011;20549;50.042;8.968;2024-02-26T05:10:08;3.50;;;2.20;;
30998;SDS011;20549;50.042;8.968;2024-02-26T05:12:34;2.60;;;2.13;;
30998;SDS011;20549;50.042;8.968;2024-02-26T05:15:01;2.97;;;2.53;;
30998;SDS011;20549;50.042;8.968;2024-02-26T05:17:28;2.20;;;2.00;;
30998;SDS011;20549;50.042;8.968;2024-02-26T05:19:54;2.53;;;2.33;;
30998;SDS011;20549;50.042;8.968;2024-02-26T05:22:21;2.80;;;2.60;;
30998;SDS011;20549;50.042;8.968;2024-02-26T05:24:47;2.20;;;2.10;;
30998;SDS011;20549;50.042;8.968;2024-02-26T05:27:14;2.33;;;2.13;;
30998;SDS011;20549;50.042;8.968;2024-02-26T05:29:40;2.33;;;2.13;;
30998;SDS011;20549;50.042;8.968;2024-02-26T05:32:07;2.30;;;2.20;;
30998;SDS011;20549;50.042;8.968;2024-02-26T05:34:34;2.30;;;2.10;;
30998;SDS011;20549;50.042;8.968;2024-02-26T05:37:00;2.43;;;2.23;;
30998;SDS011;20549;50.042;8.968;2024-02-26T05:39:27;2.40;;;2.20;;
30998;SDS011;20549;50.042;8.968;2024-02-26T05:41:53;2.20;;;2.00;;
30998;SDS011;20549;50.042;8.968;2024-02-26T05:44:20;2.07;;;1.90;;
30998;SDS011;20549;50.042;8.968;2024-02-26T05:46:46;2.13;;;1.93;;
30998;SDS011;20549;50.042;8.968;2024-02-26T05:49:13;2.07;;;1.80;;
30998;SDS011;20549;50.042;8.968;2024-02-26T05:51:40;1.87;;;1.77;;
30998;SDS011;20549;50.042;8.968;2024-02-26T05:54:06;1.80;;;1.70;;
30998;SDS011;20549;50.042;8.968;2024-02-26T05:56:33;2.20;;;1.80;;
30998;SDS011;20549;50.042;8.968;2024-02-26T05:58:59;2.03;;;1.83;;
30998;SDS011;20549;50.042;8.968;2024-02-26T06:01:26;2.00;;;1.90;;
30998;SDS011;20549;50.042;8.968;2024-02-26T06:03:53;1.90;;;1.80;;
30998;SDS011;20549;50.042;8.968;2024-02-26T06:06:19;1.70;;;1.60;;
30998;SDS011;20549;50.042;8.968;2024-02-26T06:08:46;2.10;;;2.00;;
30998;SDS011;20549;50.042;8.968;2024-02-26T06:11:12;2.00;;;1.90;;
30998;SDS011;20549;50.042;8.968;2024-02-26T06:13:39;2.17;;;2.00;;
30998;SDS011;20549;50.042;8.968;2024-02-26T06:16:07;2.10;;;1.90;;
30998;SDS011;20549;50.042;8.968;2024-02-26T06:18:32;2.07;;;1.90;;
30998;SDS011;20549;50.042;8.968;2024-02-26T06:20:59;2.07;;;1.97;;
30998;SDS011;20549;50.042;8.968;2024-02-26T06:23:25;2.43;;;2.20;;
30998;SDS011;20549;50.042;8.968;2024-02-26T06:25:52;2.60;;;2.40;;
30998;SDS011;20549;50.042;8.968;2024-02-26T06:28:18;2.67;;;2.30;;
30998;SDS011;20549;50.042;8.968;2024-02-26T06:30:45;2.40;;;2.20;;
30998;SDS011;20549;50.042;8.968;2024-02-26T06:33:12;2.97;;;2.50;;
30998;SDS011;20549;50.042;8.968;2024-02-26T06:35:38;3.27;;;2.30;;
30998;SDS011;20549;50.042;8.968;2024-02-26T06:38:05;3.60;;;2.50;;
30998;SDS011;20549;50.042;8.968;2024-02-26T06:40:31;3.43;;;2.70;;
30998;SDS011;20549;50.042;8.968;2024-02-26T06:42:58;3.93;;;3.10;;
30998;SDS011;20549;50.042;8.968;2024-02-26T06:45:24;3.50;;;3.20;;
30998;SDS011;20549;50.042;8.968;2024-02-26T06:47:51;3.60;;;3.20;;
30998;SDS011;20549;50.042;8.968;2024-02-26T06:50:18;3.10;;;2.80;;
30998;SDS011;20549;50.042;8.968;2024-02-26T06:52:44;2.57;;;2.37;;
30998;SDS011;20549;50.042;8.968;2024-02-26T06:55:11;2.60;;;2.40;;
30998;SDS011;20549;50.042;8.968;2024-02-26T06:57:37;2.40;;;2.20;;
30998;SDS011;20549;50.042;8.968;2024-02-26T07:00:04;4.23;;;2.63;;
30998;SDS011;20549;50.042;8.968;2024-02-26T07:02:31;2.77;;;2.50;;
30998;SDS011;20549;50.042;8.968;2024-02-26T07:04:57;3.37;;;2.43;;
30998;SDS011;20549;50.042;8.968;2024-02-26T07:07:24;2.60;;;2.40;;
30998;SDS011;20549;50.042;8.968;2024-02-26T07:09:50;3.20;;;2.50;;
30998;SDS011;20549;50.042;8.968;2024-02-26T07:12:17;2.50;;;2.30;;
30998;SDS011;20549;50.042;8.968;2024-02-26T07:14:44;2.83;;;2.63;;
30998;SDS011;20549;50.042;8.968;2024-02-26T07:17:10;2.73;;;2.50;;
30998;SDS011;20549;50.042;8.968;2024-02-26T07:19:37;3.10;;;2.80;;
30998;SDS011;20549;50.042;8.968;2024-02-26T07:22:03;3.43;;;2.73;;
30998;SDS011;20549;50.042;8.968;2024-02-26T07:24:30;4.13;;;2.80;;
30998;SDS011;20549;50.042;8.968;2024-02-26T07:26:56;3.43;;;2.80;;
30998;SDS011;20549;50.042;8.968;2024-02-26T07:29:23;2.87;;;2.67;;
30998;SDS011;20549;50.042;8.968;2024-02-26T07:31:50;2.90;;;2.60;;
30998;SDS011;20549;50.042;8.968;2024-02-26T07:34:16;2.77;;;2.57;;
30998;SDS011;20549;50.042;8.968;2024-02-26T07:36:43;2.83;;;2.57;;
30998;SDS011;20549;50.042;8.968;2024-02-26T07:39:09;2.53;;;2.33;;
30998;SDS011;20549;50.042;8.968;2024-02-26T07:41:36;3.20;;;2.70;;
30998;SDS011;20549;50.042;8.968;2024-02-26T07:44:03;2.87;;;2.67;;
30998;SDS011;20549;50.042;8.968;2024-02-26T07:46:29;3.13;;;2.83;;
30998;SDS011;20549;50.042;8.968;2024-02-26T07:48:56;3.40;;;3.10;;
30998;SDS011;20549;50.042;8.968;2024-02-26T07:51:22;2.97;;;2.77;;
30998;SDS011;20549;50.042;8.968;2024-02-26T07:53:49;5.43;;;2.63;;
30998;SDS011;20549;50.042;8.968;2024-02-26T07:56:15;2.77;;;2.57;;
30998;SDS011;20549;50.042;8.968;2024-02-26T07:58:42;3.57;;;2.97;;
30998;SDS011;20549;50.042;8.968;2024-02-26T08:01:09;3.07;;;2.70;;
30998;SDS011;20549;50.042;8.968;2024-02-26T08:03:36;3.90;;;3.03;;
30998;SDS011;20549;50.042;8.968;2024-02-26T08:06:02;2.80;;;2.43;;
30998;SDS011;20549;50.042;8.968;2024-02-26T08:08:28;3.37;;;2.60;;
30998;SDS011;20549;50.042;8.968;2024-02-26T08:10:58;3.23;;;2.93;;
30998;SDS011;20549;50.042;8.968;2024-02-26T08:13:24;4.00;;;3.23;;
30998;SDS011;20549;50.042;8.968;2024-02-26T08:15:51;3.20;;;2.90;;
30998;SDS011;20549;50.042;8.968;2024-02-26T08:18:17;3.57;;;2.90;;
30998;SDS011;20549;50.042;8.968;2024-02-26T08:20:44;3.20;;;2.90;;
30998;SDS011;20549;50.042;8.968;2024-02-26T08:23:11;3.27;;;2.70;;
30998;SDS011;20549;50.042;8.968;2024-02-26T08:25:37;3.10;;;2.80;;
30998;SDS011;20549;50.042;8.968;2024-02-26T08:28:04;3.23;;;2.93;;
30998;SDS011;20549;50.042;8.968;2024-02-26T08:30:30;3.90;;;3.20;;
30998;SDS011;20549;50.042;8.968;2024-02-26T08:32:57;3.27;;;2.97;;
30998;SDS011;20549;50.042;8.968;2024-02-26T08:35:23;4.47;;;4.07;;
30998;SDS011;20549;50.042;8.968;2024-02-26T08:37:50;4.77;;;4.37;;
30998;SDS011;20549;50.042;8.968;2024-02-26T08:40:17;5.73;;;5.07;;
30998;SDS011;20549;50.042;8.968;2024-02-26T08:42:43;5.03;;;4.63;;
30998;SDS011;20549;50.042;8.968;2024-02-26T08:45:10;7.37;;;5.20;;
30998;SDS011;20549;50.042;8.968;2024-02-26T08:47:36;4.47;;;4.07;;
30998;SDS011;20549;50.042;8.968;2024-02-26T08:50:03;4.30;;;3.93;;
30998;SDS011;20549;50.042;8.968;2024-02-26T08:52:31;3.20;;;2.87;;
30998;SDS011;20549;50.042;8.968;2024-02-26T08:54:58;3.73;;;3.37;;
30998;SDS011;20549;50.042;8.968;2024-02-26T08:57:24;3.60;;;3.30;;
30998;SDS011;20549;50.042;8.968;2024-02-26T08:59:51;3.83;;;3.33;;
30998;SDS011;20549;50.042;8.968;2024-02-26T09:02:17;4.53;;;3.20;;
30998;SDS011;20549;50.042;8.968;2024-02-26T09:04:44;3.30;;;3.00;;
30998;SDS011;20549;50.042;8.968;2024-02-26T09:07:11;3.40;;;3.07;;
30998;SDS011;20549;50.042;8.968;2024-02-26T09:09:37;3.10;;;2.80;;
30998;SDS011;20549;50.042;8.968;2024-02-26T09:12:04;3.93;;;2.90;;
30998;SDS011;20549;50.042;8.968;2024-02-26T09:14:30;5.70;;;3.07;;
30998;SDS011;20549;50.042;8.968;2024-02-26T09:16:57;3.00;;;2.70;;
30998;SDS011;20549;50.042;8.968;2024-02-26T09:19:25;2.97;;;2.77;;
30998;SDS011;20549;50.042;8.968;2024-02-26T09:21:50;4.40;;;3.17;;
30998;SDS011;20549;50.042;8.968;2024-02-26T09:24:17;3.50;;;3.20;;
30998;SDS011;20549;50.042;8.968;2024-02-26T09:26:43;2.97;;;2.70;;
30998;SDS011;20549;50.042;8.968;2024-02-26T09:29:10;3.37;;;2.87;;
30998;SDS011;20549;50.042;8.968;2024-02-26T09:31:36;3.50;;;3.10;;
30998;SDS011;20549;50.042;8.968;2024-02-26T09:34:03;3.83;;;3.10;;
30998;SDS011;20549;50.042;8.968;2024-02-26T09:36:30;3.75;;;2.67;;
30998;SDS011;20549;50.042;8.968;2024-02-26T09:38:56;3.30;;;3.00;;
30998;SDS011;20549;50.042;8.968;2024-02-26T09:41:23;3.37;;;2.83;;
30998;SDS011;20549;50.042;8.968;2024-02-26T09:43:49;3.10;;;2.80;;
30998;SDS011;20549;50.042;8.968;2024-02-26T09:46:16;2.73;;;2.53;;
30998;SDS011;20549;50.042;8.968;2024-02-26T09:48:43;3.40;;;3.10;;
30998;SDS011;20549;50.042;8.968;2024-02-26T09:51:09;3.00;;;2.70;;
30998;SDS011;20549;50.042;8.968;2024-02-26T09:53:36;3.10;;;2.67;;
30998;SDS011;20549;50.042;8.968;2024-02-26T09:56:02;3.95;;;3.20;;
30998;SDS011;20549;50.042;8.968;2024-02-26T09:58:29;3.20;;;2.90;;
30998;SDS011;20549;50.042;8.968;2024-02-26T10:00:56;4.33;;;3.40;;
30998;SDS011;20549;50.042;8.968;2024-02-26T10:03:22;3.50;;;2.93;;
30998;SDS011;20549;50.042;8.968;2024-02-26T10:05:49;5.92;;;3.08;;
30998;SDS011;20549;50.042;8.968;2024-02-26T10:08:15;6.47;;;5.87;;
30998;SDS011;20549;50.042;8.968;2024-02-26T10:10:42;4.83;;;4.15;;
30998;SDS011;20549;50.042;8.968;2024-02-26T10:13:08;3.42;;;3.12;;
30998;SDS011;20549;50.042;8.968;2024-02-26T10:15:36;3.45;;;3.12;;
30998;SDS011;20549;50.042;8.968;2024-02-26T10:18:05;3.35;;;3.05;;
30998;SDS011;20549;50.042;8.968;2024-02-26T10:20:31;3.85;;;3.35;;
30998;SDS011;20549;50.042;8.968;2024-02-26T10:22:58;3.72;;;3.00;;
30998;SDS011;20549;50.042;8.968;2024-02-26T10:25:24;3.65;;;3.12;;
30998;SDS011;20549;50.042;8.968;2024-02-26T10:27:51;2.80;;;2.55;;
30998;SDS011;20549;50.042;8.968;2024-02-26T10:30:19;3.65;;;2.47;;
30998;SDS011;20549;50.042;8.968;2024-02-26T10:32:45;3.58;;;3.12;;
30998;SDS011;20549;50.042;8.968;2024-02-26T10:35:11;3.05;;;2.83;;
30998;SDS011;20549;50.042;8.968;2024-02-26T10:37:37;3.05;;;2.75;;
30998;SDS011;20549;50.042;8.968;2024-02-26T10:40:04;3.77;;;3.10;;
30998;SDS011;20549;50.042;8.968;2024-02-26T10:42:31;3.77;;;3.30;;
30998;SDS011;20549;50.042;8.968;2024-02-26T10:44:57;4.00;;;3.45;;
30998;SDS011;20549;50.042;8.968;2024-02-26T10:47:24;4.28;;;3.15;;
30998;SDS011;20549;50.042;8.968;2024-02-26T10:49:50;3.65;;;3.20;;
30998;SDS011;20549;50.042;8.968;2024-02-26T10:52:18;3.05;;;2.80;;
30998;SDS011;20549;50.042;8.968;2024-02-26T10:54:43;4.67;;;3.10;;
30998;SDS011;20549;50.042;8.968;2024-02-26T10:57:10;3.60;;;3.30;;
30998;SDS011;20549;50.042;8.968;2024-02-26T11:02:13;3.33;;;2.95;;
30998;SDS011;20549;50.042;8.968;2024-02-26T11:04:39;4.20;;;3.25;;
30998;SDS011;20549;50.042;8.968;2024-02-26T11:07:06;3.50;;;3.15;;
30998;SDS011;20549;50.042;8.968;2024-02-26T11:09:32;3.80;;;3.40;;
30998;SDS011;20549;50.042;8.968;2024-02-26T11:11:59;3.30;;;3.00;;
30998;SDS011;20549;50.042;8.968;2024-02-26T11:14:26;3.62;;;3.33;;
30998;SDS011;20549;50.042;8.968;2024-02-26T11:16:52;3.55;;;3.20;;
30998;SDS011;20549;50.042;8.968;2024-02-26T11:19:19;3.10;;;2.90;;
30998;SDS011;20549;50.042;8.968;2024-02-26T11:21:45;5.35;;;3.80;;
30998;SDS011;20549;50.042;8.968;2024-02-26T11:24:12;3.50;;;3.20;;
30998;SDS011;20549;50.042;8.968;2024-02-26T11:26:43;3.55;;;3.25;;
30998;SDS011;20549;50.042;8.968;2024-02-26T11:29:05;3.15;;;2.87;;
30998;SDS011;20549;50.042;8.968;2024-02-26T11:31:32;3.45;;;3.15;;
30998;SDS011;20549;50.042;8.968;2024-02-26T11:33:58;3.30;;;3.00;;
30998;SDS011;20549;50.042;8.968;2024-02-26T11:36:25;3.37;;;3.08;;
30998;SDS011;20549;50.042;8.968;2024-02-26T11:38:52;3.37;;;3.08;;
30998;SDS011;20549;50.042;8.968;2024-02-26T11:41:18;4.28;;;2.98;;
30998;SDS011;20549;50.042;8.968;2024-02-26T11:44:06;4.35;;;3.30;;
30998;SDS011;20549;50.042;8.968;2024-02-26T11:46:30;3.30;;;3.00;;
30998;SDS011;20549;50.042;8.968;2024-02-26T11:48:59;3.20;;;3.00;;
30998;SDS011;20549;50.042;8.968;2024-02-26T11:51:28;3.27;;;2.92;;
30998;SDS011;20549;50.042;8.968;2024-02-26T11:53:54;3.33;;;3.02;;
30998;SDS011;20549;50.042;8.968;2024-02-26T11:56:21;3.52;;;3.15;;
30998;SDS011;20549;50.042;8.968;2024-02-26T11:58:47;3.20;;;2.90;;
30998;SDS011;20549;50.042;8.968;2024-02-26T12:04:05;3.83;;;2.92;;
30998;SDS011;20549;50.042;8.968;2024-02-26T12:06:39;3.33;;;3.00;;
30998;SDS011;20549;50.042;8.968;2024-02-26T12:08:58;4.25;;;3.25;;
30998;SDS011;20549;50.042;8.968;2024-02-26T12:11:27;3.40;;;3.10;;
30998;SDS011;20549;50.042;8.968;2024-02-26T12:13:51;3.72;;;3.20;;
30998;SDS011;20549;50.042;8.968;2024-02-26T12:16:36;2.80;;;2.40;;
30998;SDS011;20549;50.042;8.968;2024-02-26T12:19:05;3.25;;;2.87;;
30998;SDS011;20549;50.042;8.968;2024-02-26T12:21:37;3.20;;;2.90;;
30998;SDS011;20549;50.042;8.968;2024-02-26T12:24:10;3.05;;;2.80;;
30998;SDS011;20549;50.042;8.968;2024-02-26T12:26:39;7.03;;;6.42;;
30998;SDS011;20549;50.042;8.968;2024-02-26T12:29:06;4.50;;;4.10;;
30998;SDS011;20549;50.042;8.968;2024-02-26T12:31:33;3.35;;;3.05;;
30998;SDS011;20549;50.042;8.968;2024-02-26T12:33:59;3.40;;;2.70;;
30998;SDS011;20549;50.042;8.968;2024-02-26T12:36:25;3.60;;;2.75;;
30998;SDS011;20549;50.042;8.968;2024-02-26T12:38:52;3.30;;;3.00;;
30998;SDS011;20549;50.042;8.968;2024-02-26T12:41:19;3.20;;;2.90;;
30998;SDS011;20549;50.042;8.968;2024-02-26T12:43:45;2.92;;;2.62;;
30998;SDS011;20549;50.042;8.968;2024-02-26T12:46:12;2.95;;;2.65;;
30998;SDS011;20549;50.042;8.968;2024-02-26T12:48:38;3.47;;;3.17;;
30998;SDS011;20549;50.042;8.968;2024-02-26T12:51:05;2.85;;;2.65;;
30998;SDS011;20549;50.042;8.968;2024-02-26T12:53:32;3.83;;;2.35;;
30998;SDS011;20549;50.042;8.968;2024-02-26T12:55:58;2.67;;;2.47;;
30998;SDS011;20549;50.042;8.968;2024-02-26T12:58:25;3.40;;;2.42;;
30998;SDS011;20549;50.042;8.968;2024-02-26T13:00:51;3.83;;;2.17;;
30998;SDS011;20549;50.042;8.968;2024-02-26T13:03:18;2.42;;;2.20;;
30998;SDS011;20549;50.042;8.968;2024-02-26T13:05:45;2.80;;;2.60;;
30998;SDS011;20549;50.042;8.968;2024-02-26T13:08:21;3.15;;;2.47;;
30998;SDS011;20549;50.042;8.968;2024-02-26T13:10:45;2.50;;;2.30;;
30998;SDS011;20549;50.042;8.968;2024-02-26T13:13:10;2.50;;;2.30;;
30998;SDS011;20549;50.042;8.968;2024-02-26T13:15:37;2.87;;;2.40;;
30998;SDS011;20549;50.042;8.968;2024-02-26T13:18:10;2.70;;;2.50;;
30998;SDS011;20549;50.042;8.968;2024-02-26T13:20:36;2.85;;;2.60;;
30998;SDS011;20549;50.042;8.968;2024-02-26T13:23:10;2.70;;;2.40;;
30998;SDS011;20549;50.042;8.968;2024-02-26T13:25:38;2.60;;;2.40;;
30998;SDS011;20549;50.042;8.968;2024-02-26T13:28:08;2.60;;;2.40;;
30998;SDS011;20549;50.042;8.968;2024-02-26T13:30:34;2.60;;;2.40;;
30998;SDS011;20549;50.042;8.968;2024-02-26T13:33:07;2.87;;;2.60;;
30998;SDS011;20549;50.042;8.968;2024-02-26T13:35:33;2.67;;;2.47;;
30998;SDS011;20549;50.042;8.968;2024-02-26T13:38:00;2.62;;;2.42;;
30998;SDS011;20549;50.042;8.968;2024-02-26T13:40:26;2.55;;;2.35;;
30998;SDS011;20549;50.042;8.968;2024-02-26T13:42:53;3.00;;;2.45;;
30998;SDS011;20549;50.042;8.968;2024-02-26T13:45:19;2.35;;;2.15;;
30998;SDS011;20549;50.042;8.968;2024-02-26T13:47:46;2.65;;;2.45;;
30998;SDS011;20549;50.042;8.968;2024-02-26T13:50:12;2.70;;;2.50;;
30998;SDS011;20549;50.042;8.968;2024-02-26T13:52:39;3.00;;;2.67;;
30998;SDS011;20549;50.042;8.968;2024-02-26T13:55:06;2.33;;;2.12;;
30998;SDS011;20549;50.042;8.968;2024-02-26T13:57:32;2.75;;;2.27;;
30998;SDS011;20549;50.042;8.968;2024-02-26T13:59:59;3.27;;;2.30;;
30998;SDS011;20549;50.042;8.968;2024-02-26T14:02:26;2.55;;;2.35;;
30998;SDS011;20549;50.042;8.968;2024-02-26T14:04:52;2.25;;;2.08;;
30998;SDS011;20549;50.042;8.968;2024-02-26T14:07:19;2.17;;;2.08;;
30998;SDS011;20549;50.042;8.968;2024-02-26T14:09:45;2.40;;;2.20;;
30998;SDS011;20549;50.042;8.968;2024-02-26T14:12:12;2.00;;;1.87;;
30998;SDS011;20549;50.042;8.968;2024-02-26T14:14:38;2.90;;;2.60;;
30998;SDS011;20549;50.042;8.968;2024-02-26T14:17:05;2.37;;;2.17;;
30998;SDS011;20549;50.042;8.968;2024-02-26T14:19:32;2.67;;;2.47;;
30998;SDS011;20549;50.042;8.968;2024-02-26T14:21:58;2.25;;;1.90;;
30998;SDS011;20549;50.042;8.968;2024-02-26T14:24:25;2.25;;;2.05;;
30998;SDS011;20549;50.042;8.968;2024-02-26T14:26:51;10.65;;;4.97;;
30998;SDS011;20549;50.042;8.968;2024-02-26T14:29:18;4.87;;;2.90;;
30998;SDS011;20549;50.042;8.968;2024-02-26T14:31:45;4.72;;;3.10;;
30998;SDS011;20549;50.042;8.968;2024-02-26T14:34:11;3.10;;;2.80;;
30998;SDS011;20549;50.042;8.968;2024-02-26T14:36:38;3.77;;;2.42;;
30998;SDS011;20549;50.042;8.968;2024-02-26T14:39:04;4.28;;;1.85;;
30998;SDS011;20549;50.042;8.968;2024-02-26T14:41:31;2.50;;;2.30;;
30998;SDS011;20549;50.042;8.968;2024-02-26T14:43:58;2.37;;;2.17;;
30998;SDS011;20549;50.042;8.968;2024-02-26T14:46:24;2.17;;;1.77;;
30998;SDS011;20549;50.042;8.968;2024-02-26T14:48:51;2.33;;;2.12;;
30998;SDS011;20549;50.042;8.968;2024-02-26T14:51:17;2.30;;;2.15;;